1IL2 weather

CLOSED Hobby Hideaway RLA Airport
Delavan, Illinois, United States

Public forecast

Using degrees Fahrenheit for public forecast. Weather courtesy of forecast.io.

Closest aviation weather report (METAR) to Hobby Hideaway RLA Airport

Closest report is Logan County Airport, 12.9 nm (23.9 km) SSE. Retrieved 2019/11/17 18:35 UTC (23 minutes ago):

KAAA 171835Z AUTO 18006KT 5SM HZ SCT100 BKN120 05/02 A2994 RMK AO2 T00470019

Closest aviation forecast (TAF) to Hobby Hideaway RLA Airport

Closest forecast is General Wayne A. Downing Peoria International Airport, 21.6 nm (40.0 km) NNW. Retrieved 2019/11/17 18:48 UTC (10 minutes ago):

TAF KPIA 171742Z 1718/1818 19008KT 6SM HZ OVC100 FM172100 18006KT P6SM VCSH OVC060 FM172300 VRB04KT 5SM -RA BR OVC030 FM180100 VRB04KT P6SM VCSH OVC015 FM180300 VRB04KT P6SM OVC007 FM180500 31005KT P6SM OVC012 FM181200 31005KT P6SM BKN015